Alvo, Nebraska
Current Conditions -  °F | °C
As of 2:54 AM on Saturday 29 Nov 2014 (Local Time) from KLNK Reporting Station
Clear Clear  
Wind Chill: 32°   Ceiling: Unl
Heat Index: 37°   Visibility: 10mi
Dew Point: 29°   Wind: 6mph
Humidity: 73%   Direction: 150°SSE
Pressure: 29.6"   Gusts: NA
Location:  40.87°N, 96.39°W
Report Text: KLNK 290854Z AUTO 15005KT 10SM CLR 03/M02 A2960 RMK AO2 SLP023 T00281017 56009
Loading
Personal Weather Stations






























Interactive Weather Map New forecast layout! Learn more

10-Day Weather Forecast

Advertisements
Track Severe Weather on mobile